sensor_id;sensor_type;location;lat;lon;timestamp;P1;durP1;ratioP1;P2;durP2;ratioP2
44536;SDS011;30245;51.966;6.292;2023-05-21T00:00:40;1.15;;;0.43;;
44536;SDS011;30245;51.966;6.292;2023-05-21T00:03:06;2.25;;;0.77;;
44536;SDS011;30245;51.966;6.292;2023-05-21T00:05:37;1.83;;;0.82;;
44536;SDS011;30245;51.966;6.292;2023-05-21T00:08:06;1.60;;;0.50;;
44536;SDS011;30245;51.966;6.292;2023-05-21T00:10:32;2.35;;;0.70;;
44536;SDS011;30245;51.966;6.292;2023-05-21T00:12:58;1.40;;;0.73;;
44536;SDS011;30245;51.966;6.292;2023-05-21T00:15:23;0.70;;;0.40;;
44536;SDS011;30245;51.966;6.292;2023-05-21T00:17:49;4.70;;;0.80;;
44536;SDS011;30245;51.966;6.292;2023-05-21T00:20:14;2.60;;;0.55;;
44536;SDS011;30245;51.966;6.292;2023-05-21T00:22:40;1.30;;;0.85;;
44536;SDS011;30245;51.966;6.292;2023-05-21T00:25:06;1.88;;;0.82;;
44536;SDS011;30245;51.966;6.292;2023-05-21T00:27:33;2.47;;;0.52;;
44536;SDS011;30245;51.966;6.292;2023-05-21T00:29:58;1.25;;;0.50;;
44536;SDS011;30245;51.966;6.292;2023-05-21T00:32:24;2.20;;;0.60;;
44536;SDS011;30245;51.966;6.292;2023-05-21T00:34:50;2.80;;;0.52;;
44536;SDS011;30245;51.966;6.292;2023-05-21T00:37:15;1.10;;;0.68;;
44536;SDS011;30245;51.966;6.292;2023-05-21T00:39:41;0.90;;;0.50;;
44536;SDS011;30245;51.966;6.292;2023-05-21T00:42:07;1.52;;;0.50;;
44536;SDS011;30245;51.966;6.292;2023-05-21T00:44:32;0.95;;;0.47;;
44536;SDS011;30245;51.966;6.292;2023-05-21T00:47:02;0.90;;;0.60;;
44536;SDS011;30245;51.966;6.292;2023-05-21T00:49:28;1.20;;;0.60;;
44536;SDS011;30245;51.966;6.292;2023-05-21T00:51:55;1.27;;;0.70;;
44536;SDS011;30245;51.966;6.292;2023-05-21T00:54:21;2.13;;;0.40;;
44536;SDS011;30245;51.966;6.292;2023-05-21T00:56:48;1.73;;;0.45;;
44536;SDS011;30245;51.966;6.292;2023-05-21T00:59:15;1.10;;;0.80;;
44536;SDS011;30245;51.966;6.292;2023-05-21T01:01:42;1.65;;;0.55;;
44536;SDS011;30245;51.966;6.292;2023-05-21T01:04:09;1.58;;;0.80;;
44536;SDS011;30245;51.966;6.292;2023-05-21T01:06:38;2.15;;;0.60;;
44536;SDS011;30245;51.966;6.292;2023-05-21T01:09:03;2.65;;;0.82;;
44536;SDS011;30245;51.966;6.292;2023-05-21T01:11:37;1.58;;;0.70;;
44536;SDS011;30245;51.966;6.292;2023-05-21T01:14:09;2.15;;;0.45;;
44536;SDS011;30245;51.966;6.292;2023-05-21T01:16:37;1.23;;;0.57;;
44536;SDS011;30245;51.966;6.292;2023-05-21T01:19:03;1.10;;;0.80;;
44536;SDS011;30245;51.966;6.292;2023-05-21T01:21:32;1.30;;;0.60;;
44536;SDS011;30245;51.966;6.292;2023-05-21T01:24:01;2.65;;;0.80;;
44536;SDS011;30245;51.966;6.292;2023-05-21T01:26:29;1.23;;;0.75;;
44536;SDS011;30245;51.966;6.292;2023-05-21T01:28:57;1.25;;;0.40;;
44536;SDS011;30245;51.966;6.292;2023-05-21T01:31:25;1.85;;;0.75;;
44536;SDS011;30245;51.966;6.292;2023-05-21T01:33:55;1.40;;;0.68;;
44536;SDS011;30245;51.966;6.292;2023-05-21T01:36:24;1.00;;;0.68;;
44536;SDS011;30245;51.966;6.292;2023-05-21T01:41:32;1.13;;;0.60;;
44536;SDS011;30245;51.966;6.292;2023-05-21T01:44:02;1.75;;;0.60;;
44536;SDS011;30245;51.966;6.292;2023-05-21T01:46:29;2.72;;;0.63;;
44536;SDS011;30245;51.966;6.292;2023-05-21T01:48:58;1.48;;;0.52;;
44536;SDS011;30245;51.966;6.292;2023-05-21T01:51:24;0.90;;;0.50;;
44536;SDS011;30245;51.966;6.292;2023-05-21T01:53:50;1.52;;;0.57;;
44536;SDS011;30245;51.966;6.292;2023-05-21T01:56:16;1.20;;;0.70;;
44536;SDS011;30245;51.966;6.292;2023-05-21T01:58:42;0.60;;;0.40;;
44536;SDS011;30245;51.966;6.292;2023-05-21T02:01:08;1.65;;;0.77;;
44536;SDS011;30245;51.966;6.292;2023-05-21T02:03:33;2.05;;;0.90;;
44536;SDS011;30245;51.966;6.292;2023-05-21T02:05:59;1.10;;;0.70;;
44536;SDS011;30245;51.966;6.292;2023-05-21T02:08:25;1.50;;;0.60;;
44536;SDS011;30245;51.966;6.292;2023-05-21T02:10:51;0.80;;;0.43;;
44536;SDS011;30245;51.966;6.292;2023-05-21T02:13:17;1.02;;;0.55;;
44536;SDS011;30245;51.966;6.292;2023-05-21T02:15:46;1.65;;;0.60;;
44536;SDS011;30245;51.966;6.292;2023-05-21T02:18:12;1.50;;;0.68;;
44536;SDS011;30245;51.966;6.292;2023-05-21T02:20:42;1.45;;;0.65;;
44536;SDS011;30245;51.966;6.292;2023-05-21T02:23:08;1.55;;;1.05;;
44536;SDS011;30245;51.966;6.292;2023-05-21T02:25:33;1.40;;;1.00;;
44536;SDS011;30245;51.966;6.292;2023-05-21T02:27:59;1.25;;;0.90;;
44536;SDS011;30245;51.966;6.292;2023-05-21T02:30:26;1.35;;;0.60;;
44536;SDS011;30245;51.966;6.292;2023-05-21T02:32:52;1.45;;;0.90;;
44536;SDS011;30245;51.966;6.292;2023-05-21T02:35:17;2.35;;;0.80;;
44536;SDS011;30245;51.966;6.292;2023-05-21T02:37:43;1.77;;;0.70;;
44536;SDS011;30245;51.966;6.292;2023-05-21T02:40:09;1.27;;;0.63;;
44536;SDS011;30245;51.966;6.292;2023-05-21T02:42:35;1.70;;;0.90;;
44536;SDS011;30245;51.966;6.292;2023-05-21T02:45:03;1.80;;;0.70;;
44536;SDS011;30245;51.966;6.292;2023-05-21T02:47:30;1.25;;;0.50;;
44536;SDS011;30245;51.966;6.292;2023-05-21T02:49:57;1.30;;;0.60;;
44536;SDS011;30245;51.966;6.292;2023-05-21T02:52:24;1.10;;;0.70;;
44536;SDS011;30245;51.966;6.292;2023-05-21T02:54:50;1.17;;;0.70;;
44536;SDS011;30245;51.966;6.292;2023-05-21T02:57:16;1.73;;;0.70;;
44536;SDS011;30245;51.966;6.292;2023-05-21T02:59:42;3.83;;;0.90;;
44536;SDS011;30245;51.966;6.292;2023-05-21T03:02:08;5.32;;;0.75;;
44536;SDS011;30245;51.966;6.292;2023-05-21T03:04:34;1.23;;;0.52;;
44536;SDS011;30245;51.966;6.292;2023-05-21T03:09:29;1.05;;;0.60;;
44536;SDS011;30245;51.966;6.292;2023-05-21T03:11:54;1.33;;;0.60;;
44536;SDS011;30245;51.966;6.292;2023-05-21T03:14:20;1.10;;;0.73;;
44536;SDS011;30245;51.966;6.292;2023-05-21T03:16:45;1.50;;;0.77;;
44536;SDS011;30245;51.966;6.292;2023-05-21T03:19:12;1.20;;;0.93;;
44536;SDS011;30245;51.966;6.292;2023-05-21T03:21:39;1.40;;;0.65;;
44536;SDS011;30245;51.966;6.292;2023-05-21T03:24:05;2.95;;;0.95;;
44536;SDS011;30245;51.966;6.292;2023-05-21T03:26:31;2.55;;;0.73;;
44536;SDS011;30245;51.966;6.292;2023-05-21T03:28:57;1.70;;;0.90;;
44536;SDS011;30245;51.966;6.292;2023-05-21T03:31:22;1.40;;;0.80;;
44536;SDS011;30245;51.966;6.292;2023-05-21T03:33:49;2.03;;;0.77;;
44536;SDS011;30245;51.966;6.292;2023-05-21T03:36:15;1.35;;;0.98;;
44536;SDS011;30245;51.966;6.292;2023-05-21T03:38:41;1.40;;;0.80;;
44536;SDS011;30245;51.966;6.292;2023-05-21T03:41:07;1.40;;;0.90;;
44536;SDS011;30245;51.966;6.292;2023-05-21T03:43:33;1.23;;;0.70;;
44536;SDS011;30245;51.966;6.292;2023-05-21T03:45:58;1.42;;;0.75;;
44536;SDS011;30245;51.966;6.292;2023-05-21T03:48:24;2.28;;;1.17;;
44536;SDS011;30245;51.966;6.292;2023-05-21T03:50:49;1.13;;;0.60;;
44536;SDS011;30245;51.966;6.292;2023-05-21T03:53:15;1.13;;;0.90;;
44536;SDS011;30245;51.966;6.292;2023-05-21T03:55:42;1.63;;;0.82;;
44536;SDS011;30245;51.966;6.292;2023-05-21T03:58:07;2.17;;;0.60;;
44536;SDS011;30245;51.966;6.292;2023-05-21T04:00:34;2.22;;;1.10;;
44536;SDS011;30245;51.966;6.292;2023-05-21T04:03:01;2.10;;;1.00;;
44536;SDS011;30245;51.966;6.292;2023-05-21T04:05:27;2.65;;;0.60;;
44536;SDS011;30245;51.966;6.292;2023-05-21T04:07:53;1.45;;;0.70;;
44536;SDS011;30245;51.966;6.292;2023-05-21T04:10:19;1.50;;;0.80;;
44536;SDS011;30245;51.966;6.292;2023-05-21T04:12:45;3.00;;;1.13;;
44536;SDS011;30245;51.966;6.292;2023-05-21T04:15:13;2.88;;;0.90;;
44536;SDS011;30245;51.966;6.292;2023-05-21T04:17:42;1.25;;;0.80;;
44536;SDS011;30245;51.966;6.292;2023-05-21T04:20:09;1.63;;;0.88;;
44536;SDS011;30245;51.966;6.292;2023-05-21T04:22:36;1.90;;;1.20;;
44536;SDS011;30245;51.966;6.292;2023-05-21T04:25:01;1.33;;;0.75;;
44536;SDS011;30245;51.966;6.292;2023-05-21T04:27:27;1.80;;;0.93;;
44536;SDS011;30245;51.966;6.292;2023-05-21T04:29:53;1.52;;;0.70;;
44536;SDS011;30245;51.966;6.292;2023-05-21T04:32:21;2.85;;;0.80;;
44536;SDS011;30245;51.966;6.292;2023-05-21T04:34:47;1.52;;;0.77;;
44536;SDS011;30245;51.966;6.292;2023-05-21T04:37:13;2.40;;;0.90;;
44536;SDS011;30245;51.966;6.292;2023-05-21T04:39:41;2.55;;;1.00;;
44536;SDS011;30245;51.966;6.292;2023-05-21T04:42:07;2.53;;;1.05;;
44536;SDS011;30245;51.966;6.292;2023-05-21T04:44:34;1.58;;;0.90;;
44536;SDS011;30245;51.966;6.292;2023-05-21T04:47:01;2.80;;;0.90;;
44536;SDS011;30245;51.966;6.292;2023-05-21T04:49:26;1.30;;;0.60;;
44536;SDS011;30245;51.966;6.292;2023-05-21T04:51:52;1.52;;;1.17;;
44536;SDS011;30245;51.966;6.292;2023-05-21T04:54:18;1.58;;;0.82;;
44536;SDS011;30245;51.966;6.292;2023-05-21T04:56:43;1.40;;;0.80;;
44536;SDS011;30245;51.966;6.292;2023-05-21T04:59:09;1.73;;;1.00;;
44536;SDS011;30245;51.966;6.292;2023-05-21T05:01:34;2.10;;;1.10;;
44536;SDS011;30245;51.966;6.292;2023-05-21T05:04:02;1.73;;;1.20;;
44536;SDS011;30245;51.966;6.292;2023-05-21T05:06:30;2.55;;;0.90;;
44536;SDS011;30245;51.966;6.292;2023-05-21T05:11:22;3.10;;;0.93;;
44536;SDS011;30245;51.966;6.292;2023-05-21T05:13:47;2.17;;;1.67;;
44536;SDS011;30245;51.966;6.292;2023-05-21T05:16:13;4.43;;;1.15;;
44536;SDS011;30245;51.966;6.292;2023-05-21T05:18:48;1.50;;;0.88;;
44536;SDS011;30245;51.966;6.292;2023-05-21T05:21:15;1.38;;;0.88;;
44536;SDS011;30245;51.966;6.292;2023-05-21T05:23:41;1.70;;;0.98;;
44536;SDS011;30245;51.966;6.292;2023-05-21T05:26:06;1.45;;;0.88;;
44536;SDS011;30245;51.966;6.292;2023-05-21T05:28:32;2.05;;;1.00;;
44536;SDS011;30245;51.966;6.292;2023-05-21T05:30:57;1.73;;;1.25;;
44536;SDS011;30245;51.966;6.292;2023-05-21T05:33:23;1.30;;;0.90;;
44536;SDS011;30245;51.966;6.292;2023-05-21T05:35:49;2.28;;;1.23;;
44536;SDS011;30245;51.966;6.292;2023-05-21T05:38:14;9.13;;;3.72;;
44536;SDS011;30245;51.966;6.292;2023-05-21T05:40:40;5.07;;;1.88;;
44536;SDS011;30245;51.966;6.292;2023-05-21T05:43:06;1.75;;;1.15;;
44536;SDS011;30245;51.966;6.292;2023-05-21T05:45:32;1.73;;;1.13;;
44536;SDS011;30245;51.966;6.292;2023-05-21T05:47:57;4.85;;;1.50;;
44536;SDS011;30245;51.966;6.292;2023-05-21T05:50:23;1.35;;;0.85;;
44536;SDS011;30245;51.966;6.292;2023-05-21T05:52:48;1.98;;;1.27;;
44536;SDS011;30245;51.966;6.292;2023-05-21T05:55:15;2.28;;;1.50;;
44536;SDS011;30245;51.966;6.292;2023-05-21T05:57:40;2.38;;;1.48;;
44536;SDS011;30245;51.966;6.292;2023-05-21T06:00:06;2.90;;;1.35;;
44536;SDS011;30245;51.966;6.292;2023-05-21T06:02:34;2.55;;;1.10;;
44536;SDS011;30245;51.966;6.292;2023-05-21T06:05:00;3.10;;;1.50;;
44536;SDS011;30245;51.966;6.292;2023-05-21T06:07:26;1.73;;;0.98;;
44536;SDS011;30245;51.966;6.292;2023-05-21T06:09:52;1.73;;;1.27;;
44536;SDS011;30245;51.966;6.292;2023-05-21T06:12:17;1.73;;;1.10;;
44536;SDS011;30245;51.966;6.292;2023-05-21T06:14:43;2.55;;;1.52;;
44536;SDS011;30245;51.966;6.292;2023-05-21T06:17:10;2.53;;;1.63;;
44536;SDS011;30245;51.966;6.292;2023-05-21T06:19:36;2.75;;;0.95;;
44536;SDS011;30245;51.966;6.292;2023-05-21T06:22:01;1.63;;;1.52;;
44536;SDS011;30245;51.966;6.292;2023-05-21T06:24:27;2.05;;;1.30;;
44536;SDS011;30245;51.966;6.292;2023-05-21T06:26:52;2.20;;;1.70;;
44536;SDS011;30245;51.966;6.292;2023-05-21T06:29:18;2.30;;;1.45;;
44536;SDS011;30245;51.966;6.292;2023-05-21T06:31:43;4.05;;;1.70;;
44536;SDS011;30245;51.966;6.292;2023-05-21T06:34:09;4.57;;;1.40;;
44536;SDS011;30245;51.966;6.292;2023-05-21T06:36:35;2.92;;;1.63;;
44536;SDS011;30245;51.966;6.292;2023-05-21T06:39:01;5.13;;;3.70;;
44536;SDS011;30245;51.966;6.292;2023-05-21T06:41:27;2.00;;;1.67;;
44536;SDS011;30245;51.966;6.292;2023-05-21T06:43:53;2.17;;;1.15;;
44536;SDS011;30245;51.966;6.292;2023-05-21T06:46:18;1.40;;;1.27;;
44536;SDS011;30245;51.966;6.292;2023-05-21T06:48:44;1.73;;;1.05;;
44536;SDS011;30245;51.966;6.292;2023-05-21T06:51:10;1.98;;;1.20;;
44536;SDS011;30245;51.966;6.292;2023-05-21T06:53:36;2.65;;;1.20;;
44536;SDS011;30245;51.966;6.292;2023-05-21T06:56:02;2.90;;;1.67;;
44536;SDS011;30245;51.966;6.292;2023-05-21T06:58:27;1.42;;;1.02;;
44536;SDS011;30245;51.966;6.292;2023-05-21T07:00:55;3.10;;;1.50;;
44536;SDS011;30245;51.966;6.292;2023-05-21T07:03:21;1.98;;;1.25;;
44536;SDS011;30245;51.966;6.292;2023-05-21T07:05:47;4.55;;;1.63;;
44536;SDS011;30245;51.966;6.292;2023-05-21T07:08:13;6.22;;;2.33;;
44536;SDS011;30245;51.966;6.292;2023-05-21T07:10:38;2.28;;;1.88;;
44536;SDS011;30245;51.966;6.292;2023-05-21T07:13:04;1.77;;;1.30;;
44536;SDS011;30245;51.966;6.292;2023-05-21T07:15:29;2.03;;;1.27;;
44536;SDS011;30245;51.966;6.292;2023-05-21T07:17:55;2.25;;;2.05;;
44536;SDS011;30245;51.966;6.292;2023-05-21T07:20:20;3.28;;;1.50;;
44536;SDS011;30245;51.966;6.292;2023-05-21T07:22:49;2.15;;;1.63;;
44536;SDS011;30245;51.966;6.292;2023-05-21T07:25:15;2.92;;;1.95;;
44536;SDS011;30245;51.966;6.292;2023-05-21T07:27:40;3.88;;;1.73;;
44536;SDS011;30245;51.966;6.292;2023-05-21T07:30:06;1.88;;;1.48;;
44536;SDS011;30245;51.966;6.292;2023-05-21T07:32:33;1.88;;;1.70;;
44536;SDS011;30245;51.966;6.292;2023-05-21T07:34:58;2.22;;;2.03;;
44536;SDS011;30245;51.966;6.292;2023-05-21T07:37:25;5.07;;;2.00;;
44536;SDS011;30245;51.966;6.292;2023-05-21T07:39:51;3.83;;;2.25;;
44536;SDS011;30245;51.966;6.292;2023-05-21T07:42:18;2.42;;;1.67;;
44536;SDS011;30245;51.966;6.292;2023-05-21T07:44:43;3.20;;;2.05;;
44536;SDS011;30245;51.966;6.292;2023-05-21T07:47:09;2.17;;;1.60;;
44536;SDS011;30245;51.966;6.292;2023-05-21T07:49:34;1.90;;;1.45;;
44536;SDS011;30245;51.966;6.292;2023-05-21T07:52:00;1.67;;;1.27;;
44536;SDS011;30245;51.966;6.292;2023-05-21T07:54:26;2.55;;;1.50;;
44536;SDS011;30245;51.966;6.292;2023-05-21T07:56:51;3.47;;;2.05;;
44536;SDS011;30245;51.966;6.292;2023-05-21T07:59:17;2.10;;;1.90;;
44536;SDS011;30245;51.966;6.292;2023-05-21T08:01:43;3.45;;;1.50;;
44536;SDS011;30245;51.966;6.292;2023-05-21T08:04:08;3.40;;;1.58;;
44536;SDS011;30245;51.966;6.292;2023-05-21T08:06:34;4.45;;;2.78;;
44536;SDS011;30245;51.966;6.292;2023-05-21T08:09:01;5.68;;;2.60;;
44536;SDS011;30245;51.966;6.292;2023-05-21T08:11:27;2.17;;;1.95;;
44536;SDS011;30245;51.966;6.292;2023-05-21T08:13:53;3.70;;;3.38;;
44536;SDS011;30245;51.966;6.292;2023-05-21T08:16:19;3.95;;;2.65;;
44536;SDS011;30245;51.966;6.292;2023-05-21T08:18:45;2.88;;;2.58;;
44536;SDS011;30245;51.966;6.292;2023-05-21T08:21:10;3.25;;;2.70;;
44536;SDS011;30245;51.966;6.292;2023-05-21T08:23:37;3.65;;;2.88;;
44536;SDS011;30245;51.966;6.292;2023-05-21T08:26:02;3.42;;;2.58;;
44536;SDS011;30245;51.966;6.292;2023-05-21T08:28:28;5.95;;;3.55;;
44536;SDS011;30245;51.966;6.292;2023-05-21T08:30:54;2.75;;;2.20;;
44536;SDS011;30245;51.966;6.292;2023-05-21T08:33:20;3.88;;;2.00;;
44536;SDS011;30245;51.966;6.292;2023-05-21T08:35:46;2.40;;;1.92;;
44536;SDS011;30245;51.966;6.292;2023-05-21T08:38:11;4.47;;;2.20;;
44536;SDS011;30245;51.966;6.292;2023-05-21T08:40:37;3.25;;;2.95;;
44536;SDS011;30245;51.966;6.292;2023-05-21T08:43:02;7.38;;;2.88;;
44536;SDS011;30245;51.966;6.292;2023-05-21T08:45:29;2.15;;;1.95;;
44536;SDS011;30245;51.966;6.292;2023-05-21T08:48:01;5.40;;;2.60;;
44536;SDS011;30245;51.966;6.292;2023-05-21T08:50:28;4.25;;;2.17;;
44536;SDS011;30245;51.966;6.292;2023-05-21T08:52:55;2.85;;;2.08;;
44536;SDS011;30245;51.966;6.292;2023-05-21T08:55:22;4.07;;;2.03;;
44536;SDS011;30245;51.966;6.292;2023-05-21T08:57:48;3.40;;;2.15;;
44536;SDS011;30245;51.966;6.292;2023-05-21T09:00:14;2.22;;;1.98;;
44536;SDS011;30245;51.966;6.292;2023-05-21T09:02:40;2.72;;;1.73;;
44536;SDS011;30245;51.966;6.292;2023-05-21T09:05:07;3.30;;;2.53;;
44536;SDS011;30245;51.966;6.292;2023-05-21T09:07:37;3.15;;;2.35;;
44536;SDS011;30245;51.966;6.292;2023-05-21T09:10:07;3.40;;;2.97;;
44536;SDS011;30245;51.966;6.292;2023-05-21T09:12:36;3.92;;;3.45;;
44536;SDS011;30245;51.966;6.292;2023-05-21T09:15:02;6.80;;;2.80;;
44536;SDS011;30245;51.966;6.292;2023-05-21T09:17:28;3.05;;;2.85;;
44536;SDS011;30245;51.966;6.292;2023-05-21T09:22:34;3.88;;;2.60;;
44536;SDS011;30245;51.966;6.292;2023-05-21T09:25:03;4.22;;;3.17;;
44536;SDS011;30245;51.966;6.292;2023-05-21T09:27:31;3.55;;;2.78;;
44536;SDS011;30245;51.966;6.292;2023-05-21T09:29:56;3.38;;;3.03;;
44536;SDS011;30245;51.966;6.292;2023-05-21T09:32:22;2.92;;;2.67;;
44536;SDS011;30245;51.966;6.292;2023-05-21T09:34:47;2.92;;;2.50;;
44536;SDS011;30245;51.966;6.292;2023-05-21T09:37:14;4.20;;;3.55;;
44536;SDS011;30245;51.966;6.292;2023-05-21T09:39:40;5.03;;;3.13;;
44536;SDS011;30245;51.966;6.292;2023-05-21T09:42:06;4.45;;;3.65;;
44536;SDS011;30245;51.966;6.292;2023-05-21T09:44:31;3.05;;;2.67;;
44536;SDS011;30245;51.966;6.292;2023-05-21T09:46:59;5.63;;;4.03;;
44536;SDS011;30245;51.966;6.292;2023-05-21T09:49:26;3.63;;;3.13;;
44536;SDS011;30245;51.966;6.292;2023-05-21T09:51:55;5.28;;;3.63;;
44536;SDS011;30245;51.966;6.292;2023-05-21T09:54:24;5.55;;;4.00;;
44536;SDS011;30245;51.966;6.292;2023-05-21T09:56:54;4.40;;;3.97;;
44536;SDS011;30245;51.966;6.292;2023-05-21T09:59:20;6.15;;;5.07;;
44536;SDS011;30245;51.966;6.292;2023-05-21T10:01:48;4.15;;;3.65;;
44536;SDS011;30245;51.966;6.292;2023-05-21T10:04:15;5.88;;;4.85;;
44536;SDS011;30245;51.966;6.292;2023-05-21T10:06:41;5.40;;;4.82;;
44536;SDS011;30245;51.966;6.292;2023-05-21T10:09:10;5.00;;;4.60;;
44536;SDS011;30245;51.966;6.292;2023-05-21T10:11:39;4.25;;;3.83;;
44536;SDS011;30245;51.966;6.292;2023-05-21T10:14:12;5.40;;;4.00;;
44536;SDS011;30245;51.966;6.292;2023-05-21T10:16:41;5.60;;;3.78;;
44536;SDS011;30245;51.966;6.292;2023-05-21T10:19:07;4.30;;;2.85;;
44536;SDS011;30245;51.966;6.292;2023-05-21T10:21:35;3.90;;;3.40;;
44536;SDS011;30245;51.966;6.292;2023-05-21T10:24:03;4.82;;;4.15;;
44536;SDS011;30245;51.966;6.292;2023-05-21T10:26:31;4.03;;;3.63;;
44536;SDS011;30245;51.966;6.292;2023-05-21T10:28:57;3.42;;;3.03;;
44536;SDS011;30245;51.966;6.292;2023-05-21T10:31:24;5.70;;;3.58;;
44536;SDS011;30245;51.966;6.292;2023-05-21T10:33:52;4.25;;;3.85;;
44536;SDS011;30245;51.966;6.292;2023-05-21T10:36:18;5.93;;;5.43;;
44536;SDS011;30245;51.966;6.292;2023-05-21T10:38:45;4.75;;;4.35;;
44536;SDS011;30245;51.966;6.292;2023-05-21T10:41:11;5.88;;;4.03;;
44536;SDS011;30245;51.966;6.292;2023-05-21T11:00:06;5.25;;;3.88;;
44536;SDS011;30245;51.966;6.292;2023-05-21T11:04:59;6.25;;;3.80;;
44536;SDS011;30245;51.966;6.292;2023-05-21T11:10:39;4.38;;;3.97;;
44536;SDS011;30245;51.966;6.292;2023-05-21T11:13:14;5.05;;;4.65;;
44536;SDS011;30245;51.966;6.292;2023-05-21T11:21:02;4.38;;;4.03;;
44536;SDS011;30245;51.966;6.292;2023-05-21T11:26:15;5.30;;;4.63;;
44536;SDS011;30245;51.966;6.292;2023-05-21T11:28:45;5.03;;;4.18;;
44536;SDS011;30245;51.966;6.292;2023-05-21T11:31:23;4.53;;;4.13;;
44536;SDS011;30245;51.966;6.292;2023-05-21T11:36:40;8.43;;;4.00;;
44536;SDS011;30245;51.966;6.292;2023-05-21T11:39:08;5.50;;;4.95;;
44536;SDS011;30245;51.966;6.292;2023-05-21T11:42:10;11.95;;;4.07;;
44536;SDS011;30245;51.966;6.292;2023-05-21T11:44:47;4.15;;;3.75;;
44536;SDS011;30245;51.966;6.292;2023-05-21T11:47:14;6.40;;;3.88;;
44536;SDS011;30245;51.966;6.292;2023-05-21T11:49:41;5.30;;;4.32;;
44536;SDS011;30245;51.966;6.292;2023-05-21T11:52:08;4.47;;;3.85;;
44536;SDS011;30245;51.966;6.292;2023-05-21T11:54:44;4.18;;;3.88;;
44536;SDS011;30245;51.966;6.292;2023-05-21T11:57:16;5.07;;;4.70;;
44536;SDS011;30245;51.966;6.292;2023-05-21T11:59:49;5.18;;;4.63;;
44536;SDS011;30245;51.966;6.292;2023-05-21T12:02:18;4.72;;;4.43;;
44536;SDS011;30245;51.966;6.292;2023-05-21T12:04:46;5.65;;;5.15;;
44536;SDS011;30245;51.966;6.292;2023-05-21T12:07:13;5.32;;;3.33;;
44536;SDS011;30245;51.966;6.292;2023-05-21T12:12:10;4.15;;;3.67;;
44536;SDS011;30245;51.966;6.292;2023-05-21T12:14:42;5.43;;;4.68;;
44536;SDS011;30245;51.966;6.292;2023-05-21T12:17:09;5.53;;;5.00;;
44536;SDS011;30245;51.966;6.292;2023-05-21T12:19:37;5.15;;;4.65;;
44536;SDS011;30245;51.966;6.292;2023-05-21T12:22:04;6.15;;;3.25;;
44536;SDS011;30245;51.966;6.292;2023-05-21T12:24:30;3.75;;;3.30;;
44536;SDS011;30245;51.966;6.292;2023-05-21T12:27:01;5.45;;;4.60;;
44536;SDS011;30245;51.966;6.292;2023-05-21T12:29:33;4.30;;;3.88;;
44536;SDS011;30245;51.966;6.292;2023-05-21T12:32:04;5.05;;;4.63;;
44536;SDS011;30245;51.966;6.292;2023-05-21T12:34:39;4.88;;;4.38;;
44536;SDS011;30245;51.966;6.292;2023-05-21T12:37:10;5.22;;;4.38;;
44536;SDS011;30245;51.966;6.292;2023-05-21T12:39:40;4.63;;;4.22;;
44536;SDS011;30245;51.966;6.292;2023-05-21T12:42:08;7.10;;;4.13;;
44536;SDS011;30245;51.966;6.292;2023-05-21T12:44:34;4.90;;;4.45;;
44536;SDS011;30245;51.966;6.292;2023-05-21T12:47:00;14.80;;;4.75;;
44536;SDS011;30245;51.966;6.292;2023-05-21T12:49:33;4.93;;;3.60;;
44536;SDS011;30245;51.966;6.292;2023-05-21T12:52:12;4.70;;;4.10;;
44536;SDS011;30245;51.966;6.292;2023-05-21T12:54:39;4.20;;;3.80;;
44536;SDS011;30245;51.966;6.292;2023-05-21T12:57:08;4.25;;;3.85;;
44536;SDS011;30245;51.966;6.292;2023-05-21T12:59:48;3.90;;;3.53;;
44536;SDS011;30245;51.966;6.292;2023-05-21T13:04:54;5.85;;;3.50;;
44536;SDS011;30245;51.966;6.292;2023-05-21T13:07:24;4.07;;;3.70;;
44536;SDS011;30245;51.966;6.292;2023-05-21T13:09:51;5.18;;;3.60;;
44536;SDS011;30245;51.966;6.292;2023-05-21T13:12:20;4.05;;;3.72;;
44536;SDS011;30245;51.966;6.292;2023-05-21T13:14:52;5.25;;;4.85;;
44536;SDS011;30245;51.966;6.292;2023-05-21T13:17:18;3.85;;;3.50;;
44536;SDS011;30245;51.966;6.292;2023-05-21T13:22:31;5.55;;;5.05;;
44536;SDS011;30245;51.966;6.292;2023-05-21T13:24:57;5.35;;;4.95;;
44536;SDS011;30245;51.966;6.292;2023-05-21T13:27:22;4.35;;;3.83;;
44536;SDS011;30245;51.966;6.292;2023-05-21T13:29:48;4.13;;;3.58;;
44536;SDS011;30245;51.966;6.292;2023-05-21T13:32:13;4.47;;;3.30;;
44536;SDS011;30245;51.966;6.292;2023-05-21T13:34:39;3.60;;;3.30;;
44536;SDS011;30245;51.966;6.292;2023-05-21T13:37:04;3.80;;;3.47;;
44536;SDS011;30245;51.966;6.292;2023-05-21T13:39:30;5.55;;;4.55;;
44536;SDS011;30245;51.966;6.292;2023-05-21T13:41:55;4.40;;;4.00;;
44536;SDS011;30245;51.966;6.292;2023-05-21T13:44:21;5.15;;;3.78;;
44536;SDS011;30245;51.966;6.292;2023-05-21T13:46:47;5.18;;;4.15;;
44536;SDS011;30245;51.966;6.292;2023-05-21T13:49:12;3.58;;;3.28;;
44536;SDS011;30245;51.966;6.292;2023-05-21T13:51:38;4.38;;;4.03;;
44536;SDS011;30245;51.966;6.292;2023-05-21T13:54:04;4.97;;;4.40;;
44536;SDS011;30245;51.966;6.292;2023-05-21T13:56:29;4.68;;;4.25;;
44536;SDS011;30245;51.966;6.292;2023-05-21T14:01:22;4.47;;;3.67;;
44536;SDS011;30245;51.966;6.292;2023-05-21T14:03:48;4.10;;;3.78;;
44536;SDS011;30245;51.966;6.292;2023-05-21T14:06:14;3.72;;;3.38;;
44536;SDS011;30245;51.966;6.292;2023-05-21T14:08:39;5.22;;;3.58;;
44536;SDS011;30245;51.966;6.292;2023-05-21T14:11:05;4.07;;;3.78;;
44536;SDS011;30245;51.966;6.292;2023-05-21T14:13:31;5.35;;;3.50;;
44536;SDS011;30245;51.966;6.292;2023-05-21T14:15:56;4.50;;;4.10;;
44536;SDS011;30245;51.966;6.292;2023-05-21T14:18:22;3.75;;;3.33;;
44536;SDS011;30245;51.966;6.292;2023-05-21T14:20:48;3.75;;;3.45;;
44536;SDS011;30245;51.966;6.292;2023-05-21T14:23:13;3.70;;;3.40;;
44536;SDS011;30245;51.966;6.292;2023-05-21T14:25:40;3.50;;;2.58;;
44536;SDS011;30245;51.966;6.292;2023-05-21T14:28:06;4.30;;;3.70;;
44536;SDS011;30245;51.966;6.292;2023-05-21T14:30:31;4.60;;;4.13;;
44536;SDS011;30245;51.966;6.292;2023-05-21T14:32:57;3.55;;;3.25;;
44536;SDS011;30245;51.966;6.292;2023-05-21T14:35:23;4.68;;;4.28;;
44536;SDS011;30245;51.966;6.292;2023-05-21T14:37:48;3.55;;;3.20;;
44536;SDS011;30245;51.966;6.292;2023-05-21T14:40:14;4.78;;;2.95;;
44536;SDS011;30245;51.966;6.292;2023-05-21T14:42:39;3.72;;;3.42;;
44536;SDS011;30245;51.966;6.292;2023-05-21T14:45:05;4.72;;;3.80;;
44536;SDS011;30245;51.966;6.292;2023-05-21T14:47:31;4.25;;;3.95;;
44536;SDS011;30245;51.966;6.292;2023-05-21T14:49:56;7.53;;;3.30;;
44536;SDS011;30245;51.966;6.292;2023-05-21T14:52:22;3.53;;;3.28;;
44536;SDS011;30245;51.966;6.292;2023-05-21T14:54:48;4.00;;;3.35;;
44536;SDS011;30245;51.966;6.292;2023-05-21T14:57:13;4.47;;;4.15;;
44536;SDS011;30245;51.966;6.292;2023-05-21T14:59:39;7.30;;;4.35;;
44536;SDS011;30245;51.966;6.292;2023-05-21T15:02:04;4.20;;;3.28;;
44536;SDS011;30245;51.966;6.292;2023-05-21T15:04:30;4.35;;;3.97;;
44536;SDS011;30245;51.966;6.292;2023-05-21T15:06:55;5.10;;;3.90;;
44536;SDS011;30245;51.966;6.292;2023-05-21T15:09:21;3.53;;;3.28;;
44536;SDS011;30245;51.966;6.292;2023-05-21T15:11:47;3.88;;;3.55;;
44536;SDS011;30245;51.966;6.292;2023-05-21T15:14:16;3.50;;;3.22;;
44536;SDS011;30245;51.966;6.292;2023-05-21T15:16:42;6.88;;;3.85;;
44536;SDS011;30245;51.966;6.292;2023-05-21T15:19:08;5.18;;;4.65;;
44536;SDS011;30245;51.966;6.292;2023-05-21T15:21:35;4.03;;;3.38;;
44536;SDS011;30245;51.966;6.292;2023-05-21T15:24:01;3.30;;;2.58;;
44536;SDS011;30245;51.966;6.292;2023-05-21T15:26:26;3.38;;;3.08;;
44536;SDS011;30245;51.966;6.292;2023-05-21T15:28:52;7.30;;;3.17;;
44536;SDS011;30245;51.966;6.292;2023-05-21T15:31:17;3.67;;;3.38;;
44536;SDS011;30245;51.966;6.292;2023-05-21T15:33:43;2.70;;;2.50;;
44536;SDS011;30245;51.966;6.292;2023-05-21T15:36:08;3.22;;;2.90;;
44536;SDS011;30245;51.966;6.292;2023-05-21T15:38:34;4.72;;;4.32;;